Kt Birdie — 3FUJ7 — position and weather

sailwx.info

Track history (hours):
 
Tides and Currents Weather Stations Pressure Air Temp Water Temp Dewpoint Dewpoint Depression Visibility Wind Speed Wind Dir Waves Ship Positions

Kt Birdie

Last reported at 2016-Jul-23 00:06 UTC. Time now 2016-Jul-26 04:37 UTC.
Position N 27°28' W 015°19'.

Length 225 m; draft 7.9 m.

Type: Cargo ship. MMSI: 354803000.

Date/timePositionNaut miles runAvg speedWind from/ knotsBaromVisibWave heightAir tempDewpointWater temp
2016-Jul-23 00:06N 27°28' W 015°19'915.7
2016-Jul-22 23:33N 27°36' W 015°17'1615.7
2016-Jul-22 22:33N 27°52' W 015°13'1413.9
2016-Jul-22 21:33N 28°05' W 015°16'8 7.5
2016-Jul-22 20:33N 28°06' W 015°24'0 0.1
2016-Jul-22 19:33N 28°06' W 015°24'0 0.0
2016-Jul-22 18:32N 28°06' W 015°24'0 0.0
2016-Jul-22 17:33N 28°06' W 015°24'0 0.0
2016-Jul-22 16:33N 28°06' W 015°24'0 0.0
2016-Jul-22 15:32N 28°06' W 015°24'0 0.0
2016-Jul-22 14:32N 28°06' W 015°24'0 0.0
2016-Jul-22 13:32N 28°06' W 015°24'0 0.0
2016-Jul-22 12:32N 28°06' W 015°24'0 0.0
2016-Jul-22 11:32N 28°06' W 015°24'0 0.0
2016-Jul-22 10:32N 28°06' W 015°24'4 4.0
2016-Jul-22 09:34N 28°07' W 015°20'1111.2
2016-Jul-22 08:34N 28°09' W 015°07'8 7.6
2016-Jul-22 07:33N 28°12' W 014°59'3115.6
2016-Jul-22 05:33N 28°39' W 014°42'1515.2
2016-Jul-22 04:33N 28°52' W 014°33'1515.2
2016-Jul-22 03:33N 29°05' W 014°24'1515.3
2016-Jul-22 02:33N 29°18' W 014°15'1615.6
2016-Jul-22 01:33N 29°32' W 014°06'1515.2
2016-Jul-22 00:33N 29°44' W 013°55'1515.3
2016-Jul-21 23:33N 29°55' W 013°43'2015.7
2016-Jul-21 22:18N 30°08' W 013°27'1215.8
2016-Jul-21 21:33N 30°17' W 013°17'1616.0
2016-Jul-21 20:33N 30°28' W 013°04'1615.9
2016-Jul-21 19:33N 30°39' W 012°50'1615.7
2016-Jul-21 18:33N 30°50' W 012°37'1515.5
2016-Jul-21 17:33N 31°01' W 012°24'1515.5
2016-Jul-21 16:33N 31°11' W 012°11'1515.2
2016-Jul-21 15:33N 31°22' W 011°59'1515.1
2016-Jul-21 14:33N 31°33' W 011°46'1515.4
2016-Jul-21 13:33N 31°43' W 011°33'1615.4
2016-Jul-21 12:32N 31°54' W 011°20'3015.3
2016-Jul-21 10:33N 32°15' W 010°54'1715.5
2016-Jul-21 09:27N 32°28' W 010°40'1415.7
2016-Jul-21 08:34N 32°37' W 010°28'1615.7
2016-Jul-21 07:32N 32°48' W 010°13'1515.2
2016-Jul-21 06:33N 32°56' W 009°59'3115.2
2016-Jul-21 04:32N 33°01' W 009°23'1515.7
2016-Jul-21 03:33N 33°03' W 009°05'2214.6
2016-Jul-21 02:05N 33°07' W 008°39'  
2016-Jul-16 13:23N 33°32' W 008°51'1011.8
2016-Jul-16 12:33N 33°41' W 008°55'11811.5
2016-Jul-16 02:16N 35°31' W 009°47'811.5
2016-Jul-16 01:33N 35°39' W 009°51'15411.6
2016-Jul-15 12:19N 38°09' W 010°37'911.8
2016-Jul-15 11:33N 38°18' W 010°37'1211.7
2016-Jul-15 10:33N 38°29' W 010°37'1111.3
2016-Jul-15 09:33N 38°41' W 010°37'1211.4
2016-Jul-15 08:32N 38°52' W 010°38'1111.7
2016-Jul-15 07:33N 39°04' W 010°38'1211.9
2016-Jul-15 06:33N 39°16' W 010°39'1211.9
2016-Jul-15 05:33N 39°28' W 010°40'1211.7
2016-Jul-15 04:32N 39°39' W 010°41'1211.5
2016-Jul-15 03:32N 39°51' W 010°42'1211.9
2016-Jul-15 02:30N 40°03' W 010°42'1111.6
2016-Jul-15 01:33N 40°14' W 010°43'  
Track history (hours):
 
Tides and Currents Weather Stations Pressure Air Temp Water Temp Dewpoint Dewpoint Depression Visibility Wind Speed Wind Dir Waves Ship Positions

Kt Birdie

Last reported at 2016-Jul-23 00:06 UTC. Time now 2016-Jul-26 04:37 UTC.
Position N 27°28' W 015°19'.

Length 225 m; draft 7.9 m.

Type: Cargo ship. MMSI: 354803000.

Date/timePositionNaut miles runAvg speedWind from/ knotsBaromVisibWave heightAir tempDewpointWater temp
2016-Jul-23 00:06N 27°28' W 015°19'915.7
2016-Jul-22 23:33N 27°36' W 015°17'1615.7
2016-Jul-22 22:33N 27°52' W 015°13'1413.9
2016-Jul-22 21:33N 28°05' W 015°16'8 7.5
2016-Jul-22 20:33N 28°06' W 015°24'0 0.1
2016-Jul-22 19:33N 28°06' W 015°24'0 0.0
2016-Jul-22 18:32N 28°06' W 015°24'0 0.0
2016-Jul-22 17:33N 28°06' W 015°24'0 0.0
2016-Jul-22 16:33N 28°06' W 015°24'0 0.0
2016-Jul-22 15:32N 28°06' W 015°24'0 0.0
2016-Jul-22 14:32N 28°06' W 015°24'0 0.0
2016-Jul-22 13:32N 28°06' W 015°24'0 0.0
2016-Jul-22 12:32N 28°06' W 015°24'0 0.0
2016-Jul-22 11:32N 28°06' W 015°24'0 0.0
2016-Jul-22 10:32N 28°06' W 015°24'4 4.0
2016-Jul-22 09:34N 28°07' W 015°20'1111.2
2016-Jul-22 08:34N 28°09' W 015°07'8 7.6
2016-Jul-22 07:33N 28°12' W 014°59'3115.6
2016-Jul-22 05:33N 28°39' W 014°42'1515.2
2016-Jul-22 04:33N 28°52' W 014°33'1515.2
2016-Jul-22 03:33N 29°05' W 014°24'1515.3
2016-Jul-22 02:33N 29°18' W 014°15'1615.6
2016-Jul-22 01:33N 29°32' W 014°06'1515.2
2016-Jul-22 00:33N 29°44' W 013°55'1515.3
2016-Jul-21 23:33N 29°55' W 013°43'2015.7
2016-Jul-21 22:18N 30°08' W 013°27'1215.8
2016-Jul-21 21:33N 30°17' W 013°17'1616.0
2016-Jul-21 20:33N 30°28' W 013°04'1615.9
2016-Jul-21 19:33N 30°39' W 012°50'1615.7
2016-Jul-21 18:33N 30°50' W 012°37'1515.5
2016-Jul-21 17:33N 31°01' W 012°24'1515.5
2016-Jul-21 16:33N 31°11' W 012°11'1515.2
2016-Jul-21 15:33N 31°22' W 011°59'1515.1
2016-Jul-21 14:33N 31°33' W 011°46'1515.4
2016-Jul-21 13:33N 31°43' W 011°33'1615.4
2016-Jul-21 12:32N 31°54' W 011°20'3015.3
2016-Jul-21 10:33N 32°15' W 010°54'1715.5
2016-Jul-21 09:27N 32°28' W 010°40'1415.7
2016-Jul-21 08:34N 32°37' W 010°28'1615.7
2016-Jul-21 07:32N 32°48' W 010°13'1515.2
2016-Jul-21 06:33N 32°56' W 009°59'3115.2
2016-Jul-21 04:32N 33°01' W 009°23'1515.7
2016-Jul-21 03:33N 33°03' W 009°05'2214.6
2016-Jul-21 02:05N 33°07' W 008°39'  
2016-Jul-16 13:23N 33°32' W 008°51'1011.8
2016-Jul-16 12:33N 33°41' W 008°55'11811.5
2016-Jul-16 02:16N 35°31' W 009°47'811.5
2016-Jul-16 01:33N 35°39' W 009°51'15411.6
2016-Jul-15 12:19N 38°09' W 010°37'911.8
2016-Jul-15 11:33N 38°18' W 010°37'1211.7
2016-Jul-15 10:33N 38°29' W 010°37'1111.3
2016-Jul-15 09:33N 38°41' W 010°37'1211.4
2016-Jul-15 08:32N 38°52' W 010°38'1111.7
2016-Jul-15 07:33N 39°04' W 010°38'1211.9
2016-Jul-15 06:33N 39°16' W 010°39'1211.9
2016-Jul-15 05:33N 39°28' W 010°40'1211.7
2016-Jul-15 04:32N 39°39' W 010°41'1211.5
2016-Jul-15 03:32N 39°51' W 010°42'1211.9
2016-Jul-15 02:30N 40°03' W 010°42'1111.6
2016-Jul-15 01:33N 40°14' W 010°43'  

Dump ship's entire track history